EGSSLFBZ

Guest
Details From EGSS - London Stansted
To LFBZ - Biarritz Bayonne Anglet
Flight Number -
Tags Routegen
Created
Modified
Stats Distance 535 nm / 990 km
Max Altitude 0 ft / 0 m
Waypoints 6
Social Downloads 5
Likes 0
Share VATSIM

Download

Looking for another format? Having issues loading an existing format? Contact us
Advertisement - Login to hide

Notes

None

Route

EGSS +51.77_+000.06 ARGED BD013 +43.47_+000.91 LFBZ

ID Type Via Altitude (ft/m) Position (lat/lon) Dist (leg/tot) Name
O EGSS APT - 0 / 0 51.87508 / 0.21993 - / 0 nm
+51.77_+000.06 DME - 0 / 0 51.76876 / 0.06105 8 / 8 nm
ARGED FIX - 0 / 0 48.92972 / -0.25000 170 / 179 nm
BD013 FIX - 0 / 0 45.05529 / -0.65263 233 / 412 nm
+43.47_+000.91 DME - 0 / 0 43.47333 / -0.91116 95 / 508 nm
O LFBZ APT - 0 / 0 43.46854 / -1.50942 26 / 534 nm

Altitude Profile

Advertisement - Login to hide

Weather


0- 5 10 15 20 25 30 35+ Temperature / °C

Clouds and Precipitation
Forecast for 2018-10-21 18:00 UTC. Updated 3 hours ago

Ground ~20,000 ft ~40,000 ft Winds

EGSS

Details ICAO EGSS (STN)
Name London Stansted
Region United Kingdom
Timezone Europe/London (UTC+1.0)
Stats Elevation 348 ft / 106 m (AMSL)
Location 51.885100° 0.234986°
Runways 1
Magnetic Variation 0.237° W

METAR

EGSS 211820Z AUTO 30003KT 9999 OVC025 15/11 Q1027

Decode

TAF

TAF EGSS 211657Z 2118/2224 29008KT 9999 FEW025 BECMG 2118/2120 35012KT 7000 -RA BKN012 TEMPO 2119/2122 BKN008 BECMG 2120/2123 9999 NSW FEW015 BECMG 2215/2218 28010KT

Decode

Departure Runways

ID Width Length Bearing (true/mag) Surface Threshold Overrun Markings Lighting
04 151 ft / 46 m 9,985 ft / 3,044 m 42.78° / 43.02° ASPHALT 974 ft / 297 m 0 ft / 0 m UK-PREC-APP CENTERLINE EDGE THRESHOLD CALVERT-ILS TDZ REIL-OMNI
22 151 ft / 46 m 9,985 ft / 3,044 m 222.81° / 223.04° ASPHALT 0 ft / 0 m 0 ft / 0 m UK-PREC-APP CENTERLINE EDGE THRESHOLD CALVERT-ILS TDZ REIL-OMNI

LFBZ

Details ICAO LFBZ (BIQ)
Name Biarritz-Anglet-Bayonne
Region France
Timezone Europe/Paris (UTC+2.0)
Stats Elevation 245 ft / 75 m (AMSL)
Location 43.468400° -1.523330°
Runways 1
Magnetic Variation 0.120° W

METAR

LFBZ 211800Z AUTO 29004KT 260V320 0350 0300 R09/0350N R27/0450N FG VV/// 15/14 Q1022 TEMPO 1500 BR

Decode

TAF

TAF LFBZ 211700Z 2118/2218 30007KT 0400 FG VV/// TEMPO 2118/2208 1500 BR BKN002 BECMG 2208/2210 CAVOK

Decode

Destination Runways

ID Width Length Bearing (true/mag) Surface Threshold Overrun Markings Lighting
09 148 ft / 45 m 7,389 ft / 2,252 m 89.16° / 89.28° ASPHALT 686 ft / 209 m 0 ft / 0 m APP CENTERLINE EDGE THRESHOLD
27 148 ft / 45 m 7,389 ft / 2,252 m 269.18° / 269.30° ASPHALT 0 ft / 0 m 0 ft / 0 m PREC-APP CENTERLINE EDGE THRESHOLD

Approach Navaids

Runway Type Ident Frequency Range Bearing (true/mag) Slope Elevation
27 LOC-ILS BZ 111.35 MHz 18 nm / 33 km 269.04° / 269.16 ° - 234 ft / 71 m (AMSL)
27 GS BZ 111.35 MHz 10 nm / 19 km 269.27° / 269.39 ° 3.00° 234 ft / 71 m (AMSL)
27 DME BZ 111.35 MHz 18 nm / 33 km - - 223 ft / 68 m (AMSL)

Popular Alternatives